createdAt,value
2018-03-22T00:01:09.524Z,52.60
2018-03-22T00:03:37.592Z,52.60
2018-03-22T00:06:05.765Z,52.60
2018-03-22T00:08:34.053Z,52.80
2018-03-22T00:11:03.141Z,52.80
2018-03-22T00:13:31.207Z,52.80
2018-03-22T00:16:00.115Z,52.80
2018-03-22T00:18:28.989Z,52.90
2018-03-22T00:20:58.438Z,52.90
2018-03-22T00:23:26.564Z,52.90
2018-03-22T00:25:54.853Z,53.00
2018-03-22T00:28:23.834Z,53.10
2018-03-22T00:30:52.121Z,53.10
2018-03-22T00:33:21.127Z,53.30
2018-03-22T00:35:49.889Z,53.40
2018-03-22T00:38:17.861Z,53.40
2018-03-22T00:40:46.145Z,53.40
2018-03-22T00:43:14.924Z,53.50
2018-03-22T00:45:44.430Z,53.50
2018-03-22T00:48:12.499Z,53.40
2018-03-22T00:50:40.670Z,53.50
2018-03-22T00:53:08.851Z,53.50
2018-03-22T00:55:37.082Z,53.70
2018-03-22T00:58:05.293Z,53.70
2018-03-22T01:00:33.471Z,53.60
2018-03-22T01:03:01.671Z,53.60
2018-03-22T01:05:30.531Z,53.60
2018-03-22T01:07:58.816Z,53.60
2018-03-22T01:10:26.979Z,53.60
2018-03-22T01:12:55.267Z,53.60
2018-03-22T01:15:23.382Z,53.60
2018-03-22T01:17:51.615Z,53.70
2018-03-22T01:20:19.830Z,54.30
2018-03-22T01:22:48.567Z,53.70
2018-03-22T01:25:16.852Z,53.70
2018-03-22T01:27:45.013Z,53.70
2018-03-22T01:30:24.722Z,53.80
2018-03-22T01:32:52.832Z,53.80
2018-03-22T01:35:21.008Z,53.80
2018-03-22T01:37:49.181Z,53.90
2018-03-22T01:40:17.356Z,54.00
2018-03-22T01:42:45.529Z,54.00
2018-03-22T01:45:13.812Z,53.90
2018-03-22T01:47:41.977Z,54.00
2018-03-22T01:50:10.259Z,54.80
2018-03-22T01:52:44.065Z,54.10
2018-03-22T01:55:12.233Z,54.20
2018-03-22T01:57:40.404Z,54.20
2018-03-22T02:00:08.677Z,54.20
2018-03-22T02:02:36.854Z,54.20
2018-03-22T02:05:05.139Z,54.30
2018-03-22T02:07:33.419Z,54.40
2018-03-22T02:10:02.619Z,54.60
2018-03-22T02:12:31.490Z,54.50
2018-03-22T02:14:59.664Z,54.50
2018-03-22T02:17:27.837Z,54.50
2018-03-22T02:19:56.011Z,54.60
2018-03-22T02:22:24.184Z,54.50
2018-03-22T02:24:52.476Z,54.60
2018-03-22T02:27:20.649Z,54.60
2018-03-22T02:29:49.625Z,54.70
2018-03-22T02:32:18.638Z,54.70
2018-03-22T02:34:47.516Z,54.90
2018-03-22T02:37:15.687Z,54.90
2018-03-22T02:39:43.867Z,54.90
2018-03-22T02:42:12.036Z,54.90
2018-03-22T02:44:40.103Z,54.90
2018-03-22T02:47:08.790Z,55.00
2018-03-22T02:49:36.960Z,55.00
2018-03-22T02:52:05.140Z,55.00
2018-03-22T02:54:33.310Z,55.00
2018-03-22T02:57:01.484Z,55.00
2018-03-22T02:59:29.769Z,55.10
2018-03-22T03:01:57.717Z,55.10
2018-03-22T03:04:26.014Z,55.70
2018-03-22T03:06:54.801Z,55.20
2018-03-22T03:09:24.512Z,55.20
2018-03-22T03:11:53.502Z,55.20
2018-03-22T03:14:21.666Z,55.20
2018-03-22T03:16:49.951Z,55.20
2018-03-22T03:19:18.945Z,55.30
2018-03-22T03:21:49.157Z,55.40
2018-03-22T03:24:17.339Z,55.40
2018-03-22T03:26:45.615Z,55.40
2018-03-22T03:29:13.866Z,55.40
2018-03-22T03:31:42.054Z,55.40
2018-03-22T03:34:10.232Z,55.40
2018-03-22T03:36:38.515Z,55.40
2018-03-22T03:39:06.898Z,55.50
2018-03-22T03:41:35.059Z,55.50
2018-03-22T03:44:03.228Z,55.30
2018-03-22T03:46:31.414Z,55.40
2018-03-22T03:48:59.578Z,55.40
2018-03-22T03:51:27.864Z,55.80
2018-03-22T03:53:56.027Z,55.40
2018-03-22T03:56:24.266Z,55.00
2018-03-22T03:58:52.371Z,55.40
2018-03-22T04:01:20.647Z,55.40
2018-03-22T04:03:49.446Z,55.50
2018-03-22T04:06:17.609Z,55.50
2018-03-22T04:08:45.783Z,55.50
2018-03-22T04:11:13.960Z,55.50
2018-03-22T04:13:42.134Z,55.50
2018-03-22T04:16:12.817Z,55.50
2018-03-22T04:18:40.934Z,55.50
2018-03-22T04:21:09.107Z,55.60
2018-03-22T04:23:37.349Z,55.50
2018-03-22T04:26:05.941Z,55.60
2018-03-22T04:28:34.105Z,55.60
2018-03-22T04:31:02.212Z,55.70
2018-03-22T04:33:30.390Z,55.60
2018-03-22T04:35:59.274Z,55.70
2018-03-22T04:38:27.453Z,55.70
2018-03-22T04:40:56.250Z,55.70
2018-03-22T04:43:24.409Z,55.80
2018-03-22T04:45:52.698Z,56.10
2018-03-22T04:48:20.972Z,55.90
2018-03-22T04:50:49.139Z,55.90
2018-03-22T04:53:17.528Z,56.00
2018-03-22T04:55:46.415Z,55.90
2018-03-22T04:58:14.583Z,56.30
2018-03-22T05:00:42.762Z,55.90
2018-03-22T05:03:10.929Z,56.50
2018-03-22T05:05:39.211Z,55.80
2018-03-22T05:08:07.378Z,55.90
2018-03-22T05:10:36.264Z,55.90
2018-03-22T05:13:04.370Z,56.00
2018-03-22T05:15:33.328Z,56.00
2018-03-22T05:18:01.616Z,56.00
2018-03-22T05:20:30.393Z,56.10
2018-03-22T05:22:58.564Z,56.70
2018-03-22T05:25:26.743Z,56.00
2018-03-22T05:27:54.916Z,56.10
2018-03-22T05:30:23.198Z,56.10
2018-03-22T05:32:52.080Z,55.80
2018-03-22T05:35:20.256Z,56.10
2018-03-22T05:37:49.246Z,56.10
2018-03-22T05:40:17.423Z,56.20
2018-03-22T05:42:45.488Z,56.30
2018-03-22T05:45:13.776Z,56.20
2018-03-22T05:47:42.053Z,56.20
2018-03-22T05:50:10.329Z,56.30
2018-03-22T05:52:39.412Z,56.70
2018-03-22T05:55:07.586Z,56.30
2018-03-22T05:57:36.590Z,56.30
2018-03-22T06:00:04.864Z,56.30
2018-03-22T06:02:33.244Z,57.10
2018-03-22T06:05:01.519Z,56.30
2018-03-22T06:07:29.745Z,56.40
2018-03-22T06:09:57.861Z,57.00
2018-03-22T06:12:26.141Z,56.30
2018-03-22T06:14:54.418Z,56.30
2018-03-22T06:17:22.586Z,56.50
2018-03-22T06:19:50.758Z,56.30
2018-03-22T06:22:18.930Z,56.40
2018-03-22T06:24:47.101Z,56.30
2018-03-22T06:27:15.280Z,56.30
2018-03-22T06:29:43.286Z,56.30
2018-03-22T06:32:11.220Z,56.30
2018-03-22T06:34:39.232Z,56.30
2018-03-22T06:37:07.354Z,56.20
2018-03-22T06:39:35.529Z,56.30
2018-03-22T06:42:03.699Z,56.30
2018-03-22T06:44:31.770Z,56.20
2018-03-22T06:46:59.947Z,56.20
2018-03-22T06:49:28.637Z,56.30
2018-03-22T06:51:56.688Z,56.30
2018-03-22T06:54:24.990Z,56.20
2018-03-22T06:56:53.300Z,56.20
2018-03-22T06:59:21.541Z,56.70
2018-03-22T07:01:49.816Z,56.20
2018-03-22T07:04:17.978Z,56.10
2018-03-22T07:06:46.154Z,56.10
2018-03-22T07:09:14.328Z,56.10
2018-03-22T07:11:42.516Z,56.00
2018-03-22T07:14:11.395Z,56.10
2018-03-22T07:16:39.568Z,56.10
2018-03-22T07:19:07.736Z,56.20
2018-03-22T07:21:35.909Z,56.20
2018-03-22T07:24:04.196Z,56.20
2018-03-22T07:26:32.257Z,56.10
2018-03-22T07:29:00.550Z,56.10
2018-03-22T07:31:28.709Z,56.00
2018-03-22T07:33:56.994Z,55.90
2018-03-22T07:36:25.270Z,55.80
2018-03-22T07:38:53.436Z,55.90
2018-03-22T07:41:21.720Z,55.60
2018-03-22T07:43:49.884Z,55.80
2018-03-22T07:46:17.850Z,55.70
2018-03-22T07:48:45.920Z,55.60
2018-03-22T07:51:15.016Z,55.50
2018-03-22T07:53:43.192Z,55.40
2018-03-22T07:56:11.362Z,55.40
2018-03-22T07:58:39.536Z,55.50
2018-03-22T08:01:08.632Z,55.50
2018-03-22T08:03:36.702Z,55.40
2018-03-22T08:06:04.989Z,55.00
2018-03-22T08:08:33.152Z,54.80
2018-03-22T08:11:01.942Z,54.70
2018-03-22T08:13:30.012Z,54.60
2018-03-22T08:15:59.003Z,54.50
2018-03-22T08:18:27.182Z,54.40
2018-03-22T08:20:55.465Z,54.30
2018-03-22T08:23:23.626Z,54.20
2018-03-22T08:25:51.800Z,54.40
2018-03-22T08:28:20.532Z,54.00
2018-03-22T08:30:48.771Z,53.70
2018-03-22T08:33:17.055Z,53.60
2018-03-22T08:35:45.210Z,53.40
2018-03-22T08:38:13.389Z,53.20
2018-03-22T08:40:41.423Z,53.00
2018-03-22T08:43:10.460Z,52.80
2018-03-22T08:45:38.736Z,52.60
2018-03-22T08:48:08.434Z,51.90
2018-03-22T08:50:36.611Z,51.90
2018-03-22T08:53:07.033Z,51.40
2018-03-22T08:55:35.206Z,51.30
2018-03-22T08:58:03.387Z,50.90
2018-03-22T09:00:31.354Z,50.70
2018-03-22T09:02:59.369Z,50.40
2018-03-22T09:05:27.392Z,50.30
2018-03-22T09:07:55.417Z,50.30
2018-03-22T09:10:23.467Z,50.00
2018-03-22T09:12:51.420Z,49.60
2018-03-22T09:15:20.168Z,49.20
2018-03-22T09:17:48.079Z,49.20
2018-03-22T09:20:16.849Z,48.70
2018-03-22T09:22:44.832Z,48.80
2018-03-22T09:25:13.636Z,48.80
2018-03-22T09:27:41.565Z,48.70
2018-03-22T09:30:09.474Z,48.70
2018-03-22T09:32:37.432Z,48.30
2018-03-22T09:35:05.454Z,48.10
2018-03-22T09:37:33.426Z,47.80
2018-03-22T09:40:01.416Z,47.60
2018-03-22T09:42:30.165Z,46.80
2018-03-22T09:44:58.113Z,47.50
2018-03-22T09:47:26.105Z,46.60
2018-03-22T09:49:54.121Z,46.20
2018-03-22T09:52:22.917Z,46.00
2018-03-22T09:54:51.664Z,46.00
2018-03-22T09:57:19.685Z,45.90
2018-03-22T09:59:47.660Z,45.80
2018-03-22T10:02:15.598Z,45.60
2018-03-22T10:04:43.540Z,45.20
2018-03-22T10:07:11.470Z,45.10
2018-03-22T10:09:39.370Z,44.90
2018-03-22T10:12:07.309Z,44.70
2018-03-22T10:14:35.264Z,44.70
2018-03-22T10:17:03.253Z,44.20
2018-03-22T10:19:31.185Z,44.00
2018-03-22T10:21:59.984Z,43.20
2018-03-22T10:24:27.942Z,43.20
2018-03-22T10:26:56.639Z,42.10
2018-03-22T10:29:24.684Z,42.20
2018-03-22T10:31:52.626Z,41.60
2018-03-22T10:34:20.639Z,41.50
2018-03-22T10:36:49.462Z,41.30
2018-03-22T10:39:17.746Z,41.30
2018-03-22T10:41:45.688Z,41.10
2018-03-22T10:44:13.609Z,41.00
2018-03-22T10:46:41.550Z,40.70
2018-03-22T10:49:09.504Z,40.60
2018-03-22T10:51:37.528Z,40.20
2018-03-22T10:54:05.479Z,39.70
2018-03-22T10:56:33.507Z,39.60
2018-03-22T10:59:01.512Z,39.20
2018-03-22T11:01:35.129Z,38.80
2018-03-22T11:04:08.052Z,38.70
2018-03-22T11:06:35.993Z,38.90
2018-03-22T11:09:05.690Z,38.70
2018-03-22T11:11:33.722Z,38.70
2018-03-22T11:14:01.654Z,38.60
2018-03-22T11:16:30.412Z,37.90
2018-03-22T11:18:58.409Z,37.90
2018-03-22T11:21:27.149Z,37.60
2018-03-22T11:23:55.131Z,37.00
2018-03-22T11:26:23.113Z,36.80
2018-03-22T11:28:51.091Z,36.10
2018-03-22T11:31:19.052Z,36.40
2018-03-22T11:33:46.989Z,35.70
2018-03-22T11:36:14.938Z,35.10
2018-03-22T11:38:42.970Z,35.00
2018-03-22T11:41:11.674Z,34.00
2018-03-22T11:43:40.398Z,34.10
2018-03-22T11:46:08.372Z,34.10
2018-03-22T11:48:36.302Z,34.30
2018-03-22T11:51:04.234Z,34.00
2018-03-22T11:53:32.208Z,33.70
2018-03-22T11:56:00.147Z,33.10
2018-03-22T11:58:28.837Z,32.30
2018-03-22T12:00:56.821Z,32.30
2018-03-22T12:03:24.806Z,31.90
2018-03-22T12:05:53.236Z,31.70
2018-03-22T12:08:21.165Z,31.60
2018-03-22T12:10:49.915Z,31.20
2018-03-22T12:13:17.886Z,31.20
2018-03-22T12:15:45.809Z,31.10
2018-03-22T12:18:14.186Z,31.10
2018-03-22T12:20:42.113Z,30.70
2018-03-22T12:23:10.042Z,30.40
2018-03-22T12:25:38.011Z,30.10
2018-03-22T12:28:05.950Z,29.80
2018-03-22T12:30:33.891Z,29.40
2018-03-22T12:33:01.814Z,29.50
2018-03-22T12:35:29.758Z,29.40
2018-03-22T12:38:05.980Z,29.20
2018-03-22T12:40:55.120Z,29.10
2018-03-22T12:43:23.925Z,29.20
2018-03-22T12:45:52.721Z,28.90
2018-03-22T12:48:20.727Z,28.90
2018-03-22T12:50:48.668Z,28.60
2018-03-22T12:53:16.694Z,28.50
2018-03-22T12:55:44.709Z,28.30
2018-03-22T12:58:12.633Z,28.00
2018-03-22T13:00:40.710Z,27.80
2018-03-22T13:03:08.637Z,27.60
2018-03-22T13:05:37.593Z,27.10
2018-03-22T13:08:05.686Z,27.20
2018-03-22T13:10:33.788Z,27.10
2018-03-22T13:13:01.754Z,27.00
2018-03-22T13:15:29.707Z,26.70
2018-03-22T13:17:58.799Z,26.30
2018-03-22T13:20:27.482Z,26.30
2018-03-22T13:22:56.168Z,26.30
2018-03-22T13:25:24.835Z,26.30
2018-03-22T13:27:52.793Z,26.30
2018-03-22T13:30:20.794Z,26.30
2018-03-22T13:32:49.518Z,26.70
2018-03-22T13:35:17.503Z,26.70
2018-03-22T13:37:45.498Z,27.00
2018-03-22T13:40:13.407Z,27.10
2018-03-22T13:42:41.355Z,26.90
2018-03-22T13:45:10.138Z,26.60
2018-03-22T13:47:38.943Z,26.50
2018-03-22T13:50:06.938Z,26.50
2018-03-22T13:52:34.871Z,26.40
2018-03-22T13:55:03.659Z,26.30
2018-03-22T13:57:32.431Z,26.20
2018-03-22T14:00:01.231Z,26.60
2018-03-22T14:02:30.202Z,26.90
2018-03-22T14:04:58.944Z,27.20
2018-03-22T14:07:26.879Z,27.20
2018-03-22T14:09:55.571Z,27.30
2018-03-22T14:12:24.290Z,27.20
2018-03-22T14:14:52.288Z,27.20
2018-03-22T14:17:20.221Z,27.10
2018-03-22T14:19:48.193Z,26.90
2018-03-22T14:22:16.234Z,26.80
2018-03-22T14:24:44.231Z,26.80
2018-03-22T14:27:12.165Z,26.50
2018-03-22T14:29:40.864Z,26.60
2018-03-22T14:32:08.797Z,26.60
2018-03-22T14:34:36.787Z,26.60
2018-03-22T14:37:05.466Z,26.70
2018-03-22T14:39:34.258Z,26.90
2018-03-22T14:42:02.939Z,27.30
2018-03-22T14:44:31.617Z,27.40
2018-03-22T14:47:00.396Z,27.30
2018-03-22T14:49:28.432Z,27.20
2018-03-22T14:51:57.139Z,27.40
2018-03-22T14:54:25.062Z,27.90
2018-03-22T14:56:53.086Z,27.60
2018-03-22T14:59:21.227Z,27.60
2018-03-22T15:01:49.274Z,27.40
2018-03-22T15:04:17.361Z,27.40
2018-03-22T15:06:45.287Z,27.40
2018-03-22T15:09:14.095Z,27.70
2018-03-22T15:11:42.040Z,27.70
2018-03-22T15:14:10.782Z,27.90
2018-03-22T15:16:39.516Z,28.20
2018-03-22T15:19:08.229Z,28.40
2018-03-22T15:21:36.233Z,28.40
2018-03-22T15:24:04.954Z,28.20
2018-03-22T15:26:33.757Z,28.10
2018-03-22T15:29:02.473Z,28.10
2018-03-22T15:31:30.435Z,28.10
2018-03-22T15:33:58.379Z,27.70
2018-03-22T15:36:27.089Z,27.00
2018-03-22T15:38:55.010Z,27.00
2018-03-22T15:41:22.991Z,26.90
2018-03-22T15:43:51.774Z,27.00
2018-03-22T15:46:19.818Z,26.90
2018-03-22T15:48:47.767Z,26.90
2018-03-22T15:51:15.720Z,27.00
2018-03-22T15:53:43.816Z,27.30
2018-03-22T15:56:11.784Z,27.60
2018-03-22T15:58:39.748Z,27.80
2018-03-22T16:01:07.794Z,27.80
2018-03-22T16:03:35.746Z,27.70
2018-03-22T16:06:03.810Z,27.50
2018-03-22T16:08:32.617Z,27.40
2018-03-22T16:11:00.662Z,27.40
2018-03-22T16:13:29.522Z,27.20
2018-03-22T16:15:57.573Z,27.10
2018-03-22T16:18:25.549Z,27.30
2018-03-22T16:20:53.630Z,27.40
2018-03-22T16:23:21.622Z,27.50
2018-03-22T16:25:49.582Z,27.70
2018-03-22T16:28:17.553Z,27.90
2018-03-22T16:30:45.516Z,28.00
2018-03-22T16:33:13.558Z,27.90
2018-03-22T16:35:41.532Z,28.00
2018-03-22T16:38:09.584Z,28.10
2018-03-22T16:40:37.623Z,28.30
2018-03-22T16:43:06.638Z,28.70
2018-03-22T16:45:34.577Z,28.60
2018-03-22T16:48:03.314Z,28.80
2018-03-22T16:50:31.277Z,28.80
2018-03-22T16:52:59.331Z,28.90
2018-03-22T16:55:27.319Z,29.10
2018-03-22T16:57:55.322Z,29.20
2018-03-22T17:02:57.485Z,29.30
2018-03-22T17:05:25.531Z,29.40
2018-03-22T17:07:53.563Z,29.70
2018-03-22T17:10:22.367Z,29.80
2018-03-22T17:12:50.438Z,29.80
2018-03-22T17:15:19.232Z,30.80
2018-03-22T17:17:47.358Z,30.70
2018-03-22T17:20:15.375Z,31.00
2018-03-22T17:22:43.327Z,31.10
2018-03-22T17:25:14.629Z,31.70
2018-03-22T17:27:42.608Z,31.60
2018-03-22T17:30:10.597Z,31.90
2018-03-22T17:32:38.696Z,32.20
2018-03-22T17:35:06.703Z,33.20
2018-03-22T17:37:34.777Z,32.60
2018-03-22T17:40:02.785Z,33.00
2018-03-22T17:42:30.843Z,33.40
2018-03-22T17:44:58.976Z,33.60
2018-03-22T17:47:27.097Z,34.00
2018-03-22T17:49:55.241Z,34.20
2018-03-22T17:52:23.553Z,34.50
2018-03-22T17:54:51.743Z,34.70
2018-03-22T17:57:20.753Z,35.10
2018-03-22T17:59:48.982Z,35.20
2018-03-22T18:02:17.130Z,35.10
2018-03-22T18:04:45.301Z,35.50
2018-03-22T18:07:13.421Z,35.70
2018-03-22T18:09:43.555Z,36.00
2018-03-22T18:12:13.277Z,36.10
2018-03-22T18:14:42.978Z,36.30
2018-03-22T18:17:12.872Z,36.30
2018-03-22T18:19:42.512Z,36.30
2018-03-22T18:22:11.968Z,36.20
2018-03-22T18:24:41.610Z,36.20
2018-03-22T18:27:10.506Z,36.30
2018-03-22T18:29:39.051Z,36.30
2018-03-22T18:32:07.877Z,36.40
2018-03-22T18:34:37.376Z,36.80
2018-03-22T18:37:05.847Z,36.70
2018-03-22T18:39:35.248Z,37.00
2018-03-22T18:42:04.982Z,37.30
2018-03-22T18:44:34.249Z,37.40
2018-03-22T18:47:03.343Z,37.50
2018-03-22T18:49:33.273Z,37.70
2018-03-22T18:52:02.778Z,37.70
2018-03-22T18:54:32.495Z,37.70
2018-03-22T18:57:01.067Z,37.70
2018-03-22T18:59:30.251Z,38.10
2018-03-22T19:01:59.776Z,39.00
2018-03-22T19:04:29.267Z,38.60
2018-03-22T19:06:58.882Z,38.50
2018-03-22T19:09:27.682Z,38.50
2018-03-22T19:11:56.106Z,38.30
2018-03-22T19:14:24.733Z,38.30
2018-03-22T19:16:54.349Z,38.60
2018-03-22T19:19:24.058Z,38.70
2018-03-22T19:21:53.969Z,38.40
2018-03-22T19:24:23.794Z,38.60
2018-03-22T19:26:53.393Z,38.40
2018-03-22T19:29:22.287Z,38.40
2018-03-22T19:31:51.763Z,38.40
2018-03-22T19:34:21.293Z,38.70
2018-03-22T19:36:51.004Z,39.00
2018-03-22T19:39:20.495Z,39.00
2018-03-22T19:41:49.995Z,39.00
2018-03-22T19:44:19.446Z,39.00
2018-03-22T19:46:49.024Z,39.10
2018-03-22T19:49:18.505Z,39.00
2018-03-22T19:51:47.499Z,38.90
2018-03-22T19:54:17.132Z,39.00
2018-03-22T19:56:46.012Z,39.10
2018-03-22T19:59:16.656Z,39.40
2018-03-22T20:01:46.250Z,39.60
2018-03-22T20:04:15.034Z,39.50
2018-03-22T20:06:44.328Z,39.70
2018-03-22T20:09:13.859Z,39.90
2018-03-22T20:11:43.387Z,39.90
2018-03-22T20:14:11.996Z,40.00
2018-03-22T20:16:40.886Z,40.20
2018-03-22T20:19:10.121Z,40.20
2018-03-22T20:21:40.363Z,40.60
2018-03-22T20:24:09.026Z,40.60
2018-03-22T20:26:38.753Z,40.90
2018-03-22T20:29:08.462Z,40.90
2018-03-22T20:31:37.021Z,40.90
2018-03-22T20:34:06.318Z,41.20
2018-03-22T20:36:36.148Z,41.20
2018-03-22T20:39:04.819Z,41.20
2018-03-22T20:41:34.304Z,41.30
2018-03-22T20:44:03.618Z,41.30
2018-03-22T20:46:32.816Z,41.30
2018-03-22T20:49:01.901Z,41.30
2018-03-22T20:51:31.216Z,41.40
2018-03-22T20:54:00.200Z,41.50
2018-03-22T20:56:29.185Z,41.50
2018-03-22T20:58:58.790Z,41.50
2018-03-22T21:01:27.052Z,41.60
2018-03-22T21:03:56.836Z,42.40
2018-03-22T21:06:25.614Z,41.80
2018-03-22T21:08:53.837Z,41.80
2018-03-22T21:11:22.828Z,42.00
2018-03-22T21:13:51.115Z,42.10
2018-03-22T21:16:19.989Z,42.30
2018-03-22T21:18:48.157Z,42.30
2018-03-22T21:21:17.048Z,42.50
2018-03-22T21:23:45.125Z,42.50
2018-03-22T21:26:15.801Z,42.50
2018-03-22T21:28:44.039Z,42.50
2018-03-22T21:31:12.315Z,42.60
2018-03-22T21:33:41.089Z,42.80
2018-03-22T21:36:09.210Z,42.80
2018-03-22T21:38:37.443Z,42.90
2018-03-22T21:41:06.128Z,43.00
2018-03-22T21:43:34.195Z,43.00
2018-03-22T21:46:02.481Z,43.10
2018-03-22T21:48:31.257Z,43.30
2018-03-22T21:51:01.800Z,43.50
2018-03-22T21:53:31.604Z,43.40
2018-03-22T21:55:59.776Z,43.40
2018-03-22T21:58:28.059Z,43.40
2018-03-22T22:00:56.221Z,43.50
2018-03-22T22:03:24.395Z,43.60
2018-03-22T22:05:52.571Z,43.60
2018-03-22T22:08:20.639Z,43.60
2018-03-22T22:10:48.606Z,43.70
2018-03-22T22:13:16.683Z,43.80
2018-03-22T22:15:44.865Z,43.90
2018-03-22T22:18:12.927Z,43.90
2018-03-22T22:20:41.108Z,44.00
2018-03-22T22:23:09.167Z,44.00
2018-03-22T22:25:37.347Z,44.10
2018-03-22T22:28:05.522Z,44.10
2018-03-22T22:30:33.588Z,44.10
2018-03-22T22:33:01.757Z,44.10
2018-03-22T22:35:29.733Z,44.20
2018-03-22T22:37:57.802Z,44.20
2018-03-22T22:40:25.873Z,44.20
2018-03-22T22:42:54.056Z,44.30
2018-03-22T22:45:22.116Z,44.40
2018-03-22T22:47:50.085Z,45.10
2018-03-22T22:50:18.159Z,44.50
2018-03-22T22:52:46.229Z,44.50
2018-03-22T22:55:14.413Z,44.60
2018-03-22T22:57:42.470Z,44.70
2018-03-22T23:00:11.383Z,44.80
2018-03-22T23:02:40.148Z,49.60
2018-03-22T23:05:08.221Z,44.80
2018-03-22T23:07:36.291Z,44.90
2018-03-22T23:10:04.464Z,45.00
2018-03-22T23:12:32.649Z,44.50
2018-03-22T23:15:00.714Z,45.10
2018-03-22T23:17:28.897Z,45.10
2018-03-22T23:19:56.959Z,45.20
2018-03-22T23:22:24.921Z,45.30
2018-03-22T23:24:52.996Z,45.20
2018-03-22T23:27:20.964Z,45.40
2018-03-22T23:29:49.038Z,45.40
2018-03-22T23:32:17.104Z,45.50
2018-03-22T23:34:45.180Z,45.70
2018-03-22T23:37:13.147Z,45.70
2018-03-22T23:39:41.432Z,45.80
2018-03-22T23:42:10.424Z,45.90
2018-03-22T23:44:39.098Z,45.90
2018-03-22T23:47:07.066Z,45.90
2018-03-22T23:49:35.249Z,45.90
2018-03-22T23:52:03.426Z,45.90
2018-03-22T23:54:31.489Z,46.00
2018-03-22T23:56:59.880Z,46.20
2018-03-22T23:59:28.036Z,46.10
